sensor_id;sensor_type;location;lat;lon;timestamp;pressure;altitude;pressure_sealevel;temperature;humidity
68580;BME280;55555;52.136;5.424;2022-10-16T00:01:39;101110.84;;;11.98;94.34
68580;BME280;55555;52.136;5.424;2022-10-16T00:04:06;101111.75;;;11.97;96.77
68580;BME280;55555;52.136;5.424;2022-10-16T00:06:33;101109.16;;;11.95;96.31
68580;BME280;55555;52.136;5.424;2022-10-16T00:09:00;101101.03;;;11.98;95.42
68580;BME280;55555;52.136;5.424;2022-10-16T00:11:29;101103.72;;;11.98;96.58
68580;BME280;55555;52.136;5.424;2022-10-16T00:14:06;101104.69;;;11.96;95.50
68580;BME280;55555;52.136;5.424;2022-10-16T00:16:34;101107.44;;;11.93;95.51
68580;BME280;55555;52.136;5.424;2022-10-16T00:19:02;101104.69;;;11.96;95.78
68580;BME280;55555;52.136;5.424;2022-10-16T00:21:30;101105.56;;;11.96;95.98
68580;BME280;55555;52.136;5.424;2022-10-16T00:24:09;101110.94;;;11.95;95.43
68580;BME280;55555;52.136;5.424;2022-10-16T00:26:37;101116.13;;;11.99;94.38
68580;BME280;55555;52.136;5.424;2022-10-16T00:29:05;101112.63;;;11.97;94.85
68580;BME280;55555;52.136;5.424;2022-10-16T00:31:33;101117.00;;;12.00;94.70
68580;BME280;55555;52.136;5.424;2022-10-16T00:34:00;101113.47;;;11.99;95.90
68580;BME280;55555;52.136;5.424;2022-10-16T00:36:27;101116.88;;;12.03;95.70
68580;BME280;55555;52.136;5.424;2022-10-16T00:38:56;101106.19;;;12.03;95.29
68580;BME280;55555;52.136;5.424;2022-10-16T00:41:27;101107.94;;;12.04;96.24
68580;BME280;55555;52.136;5.424;2022-10-16T00:43:57;101103.53;;;12.03;96.98
68580;BME280;55555;52.136;5.424;2022-10-16T00:46:28;101107.94;;;12.04;96.48
68580;BME280;55555;52.136;5.424;2022-10-16T00:49:05;101106.97;;;12.06;96.41
68580;BME280;55555;52.136;5.424;2022-10-16T00:51:36;101111.38;;;12.07;96.05
68580;BME280;55555;52.136;5.424;2022-10-16T00:54:08;101117.59;;;12.08;96.76
68580;BME280;55555;52.136;5.424;2022-10-16T00:56:41;101103.19;;;12.12;94.54
68580;BME280;55555;52.136;5.424;2022-10-16T00:59:24;101103.13;;;12.14;95.17
68580;BME280;55555;52.136;5.424;2022-10-16T01:01:56;101110.22;;;12.15;96.06
68580;BME280;55555;52.136;5.424;2022-10-16T01:04:25;101105.69;;;12.17;95.67
68580;BME280;55555;52.136;5.424;2022-10-16T01:07:04;101109.16;;;12.20;94.49
68580;BME280;55555;52.136;5.424;2022-10-16T01:12:33;101116.09;;;12.24;95.26
68580;BME280;55555;52.136;5.424;2022-10-16T01:15:10;101119.56;;;12.26;95.12
68580;BME280;55555;52.136;5.424;2022-10-16T01:18:02;101118.66;;;12.27;95.20
68580;BME280;55555;52.136;5.424;2022-10-16T01:20:40;101110.53;;;12.30;95.97
68580;BME280;55555;52.136;5.424;2022-10-16T01:23:29;101115.75;;;12.33;96.02
68580;BME280;55555;52.136;5.424;2022-10-16T01:29:21;101111.06;;;12.40;95.01
68580;BME280;55555;52.136;5.424;2022-10-16T01:32:00;101118.09;;;12.42;96.14
68580;BME280;55555;52.136;5.424;2022-10-16T01:34:37;101109.22;;;12.42;95.34
68580;BME280;55555;52.136;5.424;2022-10-16T01:37:29;101118.88;;;12.44;96.32
68580;BME280;55555;52.136;5.424;2022-10-16T01:40:18;101110.00;;;12.44;94.37
68580;BME280;55555;52.136;5.424;2022-10-16T01:42:49;101114.38;;;12.47;95.73
68580;BME280;55555;52.136;5.424;2022-10-16T01:45:19;101113.44;;;12.48;95.17
68580;BME280;55555;52.136;5.424;2022-10-16T01:47:49;101113.34;;;12.51;94.83
68580;BME280;55555;52.136;5.424;2022-10-16T01:50:18;101108.00;;;12.51;95.76
68580;BME280;55555;52.136;5.424;2022-10-16T01:52:49;101101.75;;;12.52;94.65
68580;BME280;55555;52.136;5.424;2022-10-16T01:55:22;101105.22;;;12.54;95.37
68580;BME280;55555;52.136;5.424;2022-10-16T01:57:54;101109.69;;;12.53;96.31
68580;BME280;55555;52.136;5.424;2022-10-16T02:00:22;101100.88;;;12.51;95.03
68580;BME280;55555;52.136;5.424;2022-10-16T02:02:53;101103.44;;;12.54;96.10
68580;BME280;55555;52.136;5.424;2022-10-16T02:05:28;101099.88;;;12.54;95.05
68580;BME280;55555;52.136;5.424;2022-10-16T02:08:03;101097.06;;;12.57;94.88
68580;BME280;55555;52.136;5.424;2022-10-16T02:10:31;101096.16;;;12.58;96.66
68580;BME280;55555;52.136;5.424;2022-10-16T02:13:09;101104.22;;;12.56;96.03
68580;BME280;55555;52.136;5.424;2022-10-16T02:15:43;101101.53;;;12.56;94.79
68580;BME280;55555;52.136;5.424;2022-10-16T02:18:11;101101.50;;;12.58;95.40
68580;BME280;55555;52.136;5.424;2022-10-16T02:21:02;101093.47;;;12.58;95.15
68580;BME280;55555;52.136;5.424;2022-10-16T02:23:51;101103.13;;;12.62;95.88
68580;BME280;55555;52.136;5.424;2022-10-16T02:26:43;101107.66;;;12.60;95.91
68580;BME280;55555;52.136;5.424;2022-10-16T02:29:18;101111.25;;;12.59;95.38
68580;BME280;55555;52.136;5.424;2022-10-16T02:31:55;101116.59;;;12.59;95.60
68580;BME280;55555;52.136;5.424;2022-10-16T02:34:25;101112.97;;;12.60;95.67
68580;BME280;55555;52.136;5.424;2022-10-16T02:36:56;101119.31;;;12.57;95.34
68580;BME280;55555;52.136;5.424;2022-10-16T02:39:24;101112.16;;;12.58;95.64
68580;BME280;55555;52.136;5.424;2022-10-16T02:41:54;101111.34;;;12.56;95.58
68580;BME280;55555;52.136;5.424;2022-10-16T02:44:21;101114.16;;;12.53;96.26
68580;BME280;55555;52.136;5.424;2022-10-16T02:46:48;101124.00;;;12.51;96.15
68580;BME280;55555;52.136;5.424;2022-10-16T02:49:14;101117.91;;;12.47;94.76
68580;BME280;55555;52.136;5.424;2022-10-16T02:51:41;101133.06;;;12.47;96.01
68580;BME280;55555;52.136;5.424;2022-10-16T02:54:08;101125.91;;;12.47;95.85
68580;BME280;55555;52.136;5.424;2022-10-16T02:56:35;101132.31;;;12.43;95.49
68580;BME280;55555;52.136;5.424;2022-10-16T02:59:02;101130.56;;;12.42;95.52
68580;BME280;55555;52.136;5.424;2022-10-16T03:01:29;101133.19;;;12.43;96.10
68580;BME280;55555;52.136;5.424;2022-10-16T03:03:56;101132.31;;;12.43;95.72
68580;BME280;55555;52.136;5.424;2022-10-16T03:06:23;101139.38;;;12.44;95.22
68580;BME280;55555;52.136;5.424;2022-10-16T03:08:50;101135.78;;;12.45;96.33
68580;BME280;55555;52.136;5.424;2022-10-16T03:11:17;101128.59;;;12.47;96.21
68580;BME280;55555;52.136;5.424;2022-10-16T03:13:44;101126.91;;;12.44;95.72
68580;BME280;55555;52.136;5.424;2022-10-16T03:16:10;101124.16;;;12.46;97.01
68580;BME280;55555;52.136;5.424;2022-10-16T03:18:37;101116.22;;;12.44;96.03
68580;BME280;55555;52.136;5.424;2022-10-16T03:21:04;101126.91;;;12.44;96.57
68580;BME280;55555;52.136;5.424;2022-10-16T03:23:31;101124.38;;;12.41;96.45
68580;BME280;55555;52.136;5.424;2022-10-16T03:25:58;101131.44;;;12.42;95.93
68580;BME280;55555;52.136;5.424;2022-10-16T03:28:25;101128.81;;;12.41;96.93
68580;BME280;55555;52.136;5.424;2022-10-16T03:30:52;101138.69;;;12.39;96.09
68580;BME280;55555;52.136;5.424;2022-10-16T03:33:19;101131.59;;;12.38;96.15
68580;BME280;55555;52.136;5.424;2022-10-16T03:35:51;101137.09;;;12.33;96.29
68580;BME280;55555;52.136;5.424;2022-10-16T03:38:19;101134.38;;;12.35;96.11
68580;BME280;55555;52.136;5.424;2022-10-16T03:40:47;101132.75;;;12.31;96.52
68580;BME280;55555;52.136;5.424;2022-10-16T03:43:14;101140.72;;;12.32;96.75
68580;BME280;55555;52.136;5.424;2022-10-16T03:45:46;101141.69;;;12.30;96.12
68580;BME280;55555;52.136;5.424;2022-10-16T03:48:13;101143.44;;;12.31;96.73
68580;BME280;55555;52.136;5.424;2022-10-16T03:50:39;101145.28;;;12.29;96.28
68580;BME280;55555;52.136;5.424;2022-10-16T03:53:06;101148.94;;;12.26;96.59
68580;BME280;55555;52.136;5.424;2022-10-16T03:55:34;101147.19;;;12.25;97.19
68580;BME280;55555;52.136;5.424;2022-10-16T03:58:01;101152.69;;;12.21;96.57
68580;BME280;55555;52.136;5.424;2022-10-16T04:00:28;101150.97;;;12.20;96.13
68580;BME280;55555;52.136;5.424;2022-10-16T04:02:55;101165.22;;;12.19;97.10
68580;BME280;55555;52.136;5.424;2022-10-16T04:05:22;101158.13;;;12.18;96.40
68580;BME280;55555;52.136;5.424;2022-10-16T04:07:49;101164.34;;;12.18;96.81
68580;BME280;55555;52.136;5.424;2022-10-16T04:10:16;101172.41;;;12.17;96.90
68580;BME280;55555;52.136;5.424;2022-10-16T04:12:43;101157.41;;;12.13;96.52
68580;BME280;55555;52.136;5.424;2022-10-16T04:15:10;101170.75;;;12.13;96.51
68580;BME280;55555;52.136;5.424;2022-10-16T04:17:37;101178.88;;;12.10;96.84
68580;BME280;55555;52.136;5.424;2022-10-16T04:20:04;101178.94;;;12.08;96.34
68580;BME280;55555;52.136;5.424;2022-10-16T04:22:32;101183.41;;;12.07;96.18
68580;BME280;55555;52.136;5.424;2022-10-16T04:24:58;101194.94;;;12.08;97.08
68580;BME280;55555;52.136;5.424;2022-10-16T04:27:25;101195.03;;;12.05;96.34
68580;BME280;55555;52.136;5.424;2022-10-16T04:29:53;101185.25;;;12.05;96.78
68580;BME280;55555;52.136;5.424;2022-10-16T04:32:20;101201.25;;;12.05;96.49
68580;BME280;55555;52.136;5.424;2022-10-16T04:34:47;101198.63;;;12.04;96.45
68580;BME280;55555;52.136;5.424;2022-10-16T04:37:13;101198.72;;;12.01;96.88
68580;BME280;55555;52.136;5.424;2022-10-16T04:39:40;101201.47;;;11.99;96.38
68580;BME280;55555;52.136;5.424;2022-10-16T04:42:07;101213.00;;;12.00;96.91
68580;BME280;55555;52.136;5.424;2022-10-16T04:44:34;101212.06;;;12.01;97.45
68580;BME280;55555;52.136;5.424;2022-10-16T04:47:01;101216.56;;;12.00;97.28
68580;BME280;55555;52.136;5.424;2022-10-16T04:49:28;101214.81;;;11.99;96.68
68580;BME280;55555;52.136;5.424;2022-10-16T04:51:55;101222.72;;;12.01;96.99
68580;BME280;55555;52.136;5.424;2022-10-16T04:54:22;101228.06;;;12.01;97.29
68580;BME280;55555;52.136;5.424;2022-10-16T04:56:49;101225.41;;;12.01;97.48
68580;BME280;55555;52.136;5.424;2022-10-16T04:59:19;101228.00;;;12.02;97.08
68580;BME280;55555;52.136;5.424;2022-10-16T05:01:46;101231.50;;;12.04;96.41
68580;BME280;55555;52.136;5.424;2022-10-16T05:04:13;101238.59;;;12.05;97.08
68580;BME280;55555;52.136;5.424;2022-10-16T05:06:41;101232.56;;;12.00;96.39
68580;BME280;55555;52.136;5.424;2022-10-16T05:09:09;101247.69;;;12.00;96.94
68580;BME280;55555;52.136;5.424;2022-10-16T05:11:36;101243.16;;;12.02;97.37
68580;BME280;55555;52.136;5.424;2022-10-16T05:14:03;101239.69;;;12.00;97.15
68580;BME280;55555;52.136;5.424;2022-10-16T05:16:30;101245.09;;;11.97;96.92
68580;BME280;55555;52.136;5.424;2022-10-16T05:18:57;101253.13;;;11.97;97.09
68580;BME280;55555;52.136;5.424;2022-10-16T05:21:44;101263.00;;;11.93;97.01
68580;BME280;55555;52.136;5.424;2022-10-16T05:24:11;101260.38;;;11.92;97.23
68580;BME280;55555;52.136;5.424;2022-10-16T05:26:38;101263.16;;;11.89;96.73
68580;BME280;55555;52.136;5.424;2022-10-16T05:29:05;101272.84;;;11.91;97.11
68580;BME280;55555;52.136;5.424;2022-10-16T05:31:32;101272.09;;;11.88;97.08
68580;BME280;55555;52.136;5.424;2022-10-16T05:33:59;101272.97;;;11.88;96.91
68580;BME280;55555;52.136;5.424;2022-10-16T05:36:27;101270.34;;;11.87;97.35
68580;BME280;55555;52.136;5.424;2022-10-16T05:38:54;101286.38;;;11.85;97.43
68580;BME280;55555;52.136;5.424;2022-10-16T05:41:21;101296.22;;;11.83;97.55
68580;BME280;55555;52.136;5.424;2022-10-16T05:43:52;101294.50;;;11.81;97.67
68580;BME280;55555;52.136;5.424;2022-10-16T05:46:19;101298.94;;;11.82;97.29
68580;BME280;55555;52.136;5.424;2022-10-16T05:48:46;101303.38;;;11.81;97.54
68580;BME280;55555;52.136;5.424;2022-10-16T05:51:14;101306.88;;;11.83;97.19
68580;BME280;55555;52.136;5.424;2022-10-16T05:53:41;101304.19;;;11.85;96.81
68580;BME280;55555;52.136;5.424;2022-10-16T05:56:10;101319.09;;;11.90;96.92
68580;BME280;55555;52.136;5.424;2022-10-16T05:58:39;101328.03;;;11.89;97.56
68580;BME280;55555;52.136;5.424;2022-10-16T06:01:17;101332.38;;;11.92;97.46
68580;BME280;55555;52.136;5.424;2022-10-16T06:03:45;101321.63;;;11.95;97.72
68580;BME280;55555;52.136;5.424;2022-10-16T06:06:14;101326.91;;;11.96;97.43
68580;BME280;55555;52.136;5.424;2022-10-16T06:08:43;101329.38;;;12.02;97.52
68580;BME280;55555;52.136;5.424;2022-10-16T06:11:19;101336.56;;;12.00;97.99
68580;BME280;55555;52.136;5.424;2022-10-16T06:13:56;101332.00;;;12.04;97.97
68580;BME280;55555;52.136;5.424;2022-10-16T06:16:25;101336.38;;;12.06;97.88
68580;BME280;55555;52.136;5.424;2022-10-16T06:18:53;101340.81;;;12.06;97.29
68580;BME280;55555;52.136;5.424;2022-10-16T06:21:24;101348.69;;;12.11;97.58
68580;BME280;55555;52.136;5.424;2022-10-16T06:23:52;101349.56;;;12.11;97.66
68580;BME280;55555;52.136;5.424;2022-10-16T06:26:22;101360.16;;;12.13;97.90
68580;BME280;55555;52.136;5.424;2022-10-16T06:28:55;101365.44;;;12.14;97.08
68580;BME280;55555;52.136;5.424;2022-10-16T06:31:23;101365.38;;;12.17;97.64
68580;BME280;55555;52.136;5.424;2022-10-16T06:33:54;101367.13;;;12.18;96.98
68580;BME280;55555;52.136;5.424;2022-10-16T06:36:22;101365.22;;;12.22;97.48
68580;BME280;55555;52.136;5.424;2022-10-16T06:38:50;101366.91;;;12.24;97.36
68580;BME280;55555;52.136;5.424;2022-10-16T06:41:19;101370.44;;;12.25;97.34
68580;BME280;55555;52.136;5.424;2022-10-16T06:43:48;101370.41;;;12.26;97.51
68580;BME280;55555;52.136;5.424;2022-10-16T06:46:17;101381.03;;;12.28;97.08
68580;BME280;55555;52.136;5.424;2022-10-16T06:48:46;101386.31;;;12.29;97.56
68580;BME280;55555;52.136;5.424;2022-10-16T06:51:15;101385.34;;;12.32;97.37
68580;BME280;55555;52.136;5.424;2022-10-16T06:53:49;101396.94;;;12.31;96.75
68580;BME280;55555;52.136;5.424;2022-10-16T06:56:30;101395.09;;;12.33;97.26
68580;BME280;55555;52.136;5.424;2022-10-16T06:58:59;101402.13;;;12.35;97.70
68580;BME280;55555;52.136;5.424;2022-10-16T07:01:27;101398.47;;;12.38;97.42
68580;BME280;55555;52.136;5.424;2022-10-16T07:03:54;101401.97;;;12.40;97.19
68580;BME280;55555;52.136;5.424;2022-10-16T07:06:22;101399.31;;;12.40;97.45
68580;BME280;55555;52.136;5.424;2022-10-16T07:08:51;101385.03;;;12.41;96.13
68580;BME280;55555;52.136;5.424;2022-10-16T07:11:20;101387.53;;;12.46;96.58
68580;BME280;55555;52.136;5.424;2022-10-16T07:13:49;101406.13;;;12.49;96.71
68580;BME280;55555;52.136;5.424;2022-10-16T07:16:24;101406.88;;;12.54;97.21
68580;BME280;55555;52.136;5.424;2022-10-16T07:18:54;101407.66;;;12.56;96.69
68580;BME280;55555;52.136;5.424;2022-10-16T07:21:28;101416.47;;;12.59;97.04
68580;BME280;55555;52.136;5.424;2022-10-16T07:23:59;101415.59;;;12.59;96.75
68580;BME280;55555;52.136;5.424;2022-10-16T07:26:31;101432.38;;;12.62;95.98
68580;BME280;55555;52.136;5.424;2022-10-16T07:29:00;101430.53;;;12.64;96.98
68580;BME280;55555;52.136;5.424;2022-10-16T07:31:27;101441.22;;;12.64;95.78
68580;BME280;55555;52.136;5.424;2022-10-16T07:33:54;101440.97;;;12.72;96.74
68580;BME280;55555;52.136;5.424;2022-10-16T07:36:21;101444.56;;;12.71;95.66
68580;BME280;55555;52.136;5.424;2022-10-16T07:38:48;101447.97;;;12.76;96.20
68580;BME280;55555;52.136;5.424;2022-10-16T07:41:20;101460.28;;;12.80;97.27
68580;BME280;55555;52.136;5.424;2022-10-16T07:43:53;101455.81;;;12.80;96.11
68580;BME280;55555;52.136;5.424;2022-10-16T07:46:22;101463.72;;;12.84;96.57
68580;BME280;55555;52.136;5.424;2022-10-16T07:48:49;101468.09;;;12.86;97.24
68580;BME280;55555;52.136;5.424;2022-10-16T07:51:18;101485.00;;;12.87;96.68
68580;BME280;55555;52.136;5.424;2022-10-16T07:53:47;101483.28;;;12.84;95.70
68580;BME280;55555;52.136;5.424;2022-10-16T07:56:15;101500.06;;;12.88;96.83
68580;BME280;55555;52.136;5.424;2022-10-16T07:58:43;101494.72;;;12.88;96.42
68580;BME280;55555;52.136;5.424;2022-10-16T08:01:12;101503.69;;;12.87;97.08
68580;BME280;55555;52.136;5.424;2022-10-16T08:03:44;101504.66;;;12.84;96.81
68580;BME280;55555;52.136;5.424;2022-10-16T08:06:12;101506.47;;;12.84;96.15
68580;BME280;55555;52.136;5.424;2022-10-16T08:08:40;101509.84;;;12.89;96.55
68580;BME280;55555;52.136;5.424;2022-10-16T08:11:07;101508.91;;;12.90;96.08
68580;BME280;55555;52.136;5.424;2022-10-16T08:13:34;101511.50;;;12.93;96.71
68580;BME280;55555;52.136;5.424;2022-10-16T08:16:02;101522.91;;;12.98;95.88
68580;BME280;55555;52.136;5.424;2022-10-16T08:18:35;101515.59;;;13.03;95.30
68580;BME280;55555;52.136;5.424;2022-10-16T08:21:04;101527.72;;;13.13;95.32
68580;BME280;55555;52.136;5.424;2022-10-16T08:23:32;101526.84;;;13.12;95.33
68580;BME280;55555;52.136;5.424;2022-10-16T08:26:04;101521.41;;;13.17;94.34
68580;BME280;55555;52.136;5.424;2022-10-16T08:28:32;101533.63;;;13.24;95.54
68580;BME280;55555;52.136;5.424;2022-10-16T08:31:25;101534.28;;;13.31;95.35
68580;BME280;55555;52.136;5.424;2022-10-16T08:33:53;101533.34;;;13.32;94.86
68580;BME280;55555;52.136;5.424;2022-10-16T08:36:20;101530.53;;;13.36;96.16
68580;BME280;55555;52.136;5.424;2022-10-16T08:38:48;101546.25;;;13.45;94.83
68580;BME280;55555;52.136;5.424;2022-10-16T08:49:34;101552.06;;;13.58;94.55
68580;BME280;55555;52.136;5.424;2022-10-16T08:52:02;101559.19;;;13.58;93.72
68580;BME280;55555;52.136;5.424;2022-10-16T08:54:32;101564.41;;;13.62;94.91
68580;BME280;55555;52.136;5.424;2022-10-16T08:57:13;101577.50;;;13.70;95.63
68580;BME280;55555;52.136;5.424;2022-10-16T08:59:49;101579.25;;;13.71;94.13
68580;BME280;55555;52.136;5.424;2022-10-16T09:02:28;101571.22;;;13.71;94.08
68580;BME280;55555;52.136;5.424;2022-10-16T09:08:28;101583.88;;;13.91;93.24
68580;BME280;55555;52.136;5.424;2022-10-16T09:11:44;101578.44;;;13.94;93.22
68580;BME280;55555;52.136;5.424;2022-10-16T09:17:34;101585.00;;;14.08;94.39
68580;BME280;55555;52.136;5.424;2022-10-16T09:23:15;101597.72;;;14.27;93.66
68580;BME280;55555;52.136;5.424;2022-10-16T09:25:46;101614.22;;;14.39;93.74
68580;BME280;55555;52.136;5.424;2022-10-16T09:28:16;101602.59;;;14.40;93.61
68580;BME280;55555;52.136;5.424;2022-10-16T09:30:45;101603.75;;;14.56;94.13
68580;BME280;55555;52.136;5.424;2022-10-16T09:33:15;101609.16;;;14.78;93.01
68580;BME280;55555;52.136;5.424;2022-10-16T09:35:47;101611.06;;;14.98;92.00
68580;BME280;55555;52.136;5.424;2022-10-16T09:38:33;101615.59;;;15.18;92.61
68580;BME280;55555;52.136;5.424;2022-10-16T09:41:17;101618.28;;;15.40;93.47
68580;BME280;55555;52.136;5.424;2022-10-16T09:46:28;101609.72;;;15.74;92.74
68580;BME280;55555;52.136;5.424;2022-10-16T09:49:21;101622.19;;;15.75;92.53
68580;BME280;55555;52.136;5.424;2022-10-16T09:51:50;101627.09;;;15.65;89.81
68580;BME280;55555;52.136;5.424;2022-10-16T09:54:20;101626.22;;;15.64;90.98
68580;BME280;55555;52.136;5.424;2022-10-16T09:56:48;101625.00;;;15.50;88.70
68580;BME280;55555;52.136;5.424;2022-10-16T09:59:19;101636.88;;;15.66;90.69
68580;BME280;55555;52.136;5.424;2022-10-16T10:01:51;101639.69;;;15.63;90.72
68580;BME280;55555;52.136;5.424;2022-10-16T10:04:21;101631.13;;;15.75;93.45
68580;BME280;55555;52.136;5.424;2022-10-16T10:06:51;101637.91;;;15.84;92.04
68580;BME280;55555;52.136;5.424;2022-10-16T10:11:51;101643.38;;;15.60;88.49
68580;BME280;55555;52.136;5.424;2022-10-16T10:14:37;101641.22;;;15.68;88.28
68580;BME280;55555;52.136;5.424;2022-10-16T10:19:47;101630.94;;;16.00;89.71
68580;BME280;55555;52.136;5.424;2022-10-16T10:22:27;101644.59;;;16.14;89.44
68580;BME280;55555;52.136;5.424;2022-10-16T10:30:44;101648.63;;;17.02;89.84
68580;BME280;55555;52.136;5.424;2022-10-16T10:38:00;101657.72;;;17.19;88.57
68580;BME280;55555;52.136;5.424;2022-10-16T10:40:17;101654.28;;;17.70;86.87
68580;BME280;55555;52.136;5.424;2022-10-16T10:46:10;101657.56;;;18.61;83.44
68580;BME280;55555;52.136;5.424;2022-10-16T10:49:22;101663.19;;;19.05;86.26
68580;BME280;55555;52.136;5.424;2022-10-16T10:52:24;101669.28;;;19.09;80.75
68580;BME280;55555;52.136;5.424;2022-10-16T10:58:10;101669.53;;;18.88;85.05
68580;BME280;55555;52.136;5.424;2022-10-16T11:07:02;101677.78;;;18.70;80.99
68580;BME280;55555;52.136;5.424;2022-10-16T11:09:41;101679.19;;;18.77;83.07
68580;BME280;55555;52.136;5.424;2022-10-16T11:12:21;101685.38;;;18.62;82.44
68580;BME280;55555;52.136;5.424;2022-10-16T11:20:23;101697.09;;;17.74;83.39
68580;BME280;55555;52.136;5.424;2022-10-16T11:22:59;101700.41;;;17.43;85.82
68580;BME280;55555;52.136;5.424;2022-10-16T11:25:38;101709.06;;;17.31;85.84
68580;BME280;55555;52.136;5.424;2022-10-16T11:28:11;101705.84;;;17.06;83.67
68580;BME280;55555;52.136;5.424;2022-10-16T11:31:10;101711.22;;;17.06;83.62
68580;BME280;55555;52.136;5.424;2022-10-16T11:33:58;101711.22;;;17.06;88.02
68580;BME280;55555;52.136;5.424;2022-10-16T11:36:39;101715.22;;;16.97;81.54
68580;BME280;55555;52.136;5.424;2022-10-16T11:39:28;101712.22;;;17.03;85.28
68580;BME280;55555;52.136;5.424;2022-10-16T11:42:08;101707.84;;;17.01;84.53
68580;BME280;55555;52.136;5.424;2022-10-16T11:48:16;101714.44;;;16.75;83.71
68580;BME280;55555;52.136;5.424;2022-10-16T11:51:02;101720.41;;;16.82;88.56
68580;BME280;55555;52.136;5.424;2022-10-16T11:54:04;101727.53;;;16.83;81.84
68580;BME280;55555;52.136;5.424;2022-10-16T11:56:43;101720.09;;;16.69;82.71
68580;BME280;55555;52.136;5.424;2022-10-16T11:59:39;101724.31;;;16.54;83.78
68580;BME280;55555;52.136;5.424;2022-10-16T12:02:57;101718.41;;;16.46;85.24
68580;BME280;55555;52.136;5.424;2022-10-16T12:08:23;101725.00;;;16.39;77.72
68580;BME280;55555;52.136;5.424;2022-10-16T12:10:50;101733.13;;;16.37;83.15
68580;BME280;55555;52.136;5.424;2022-10-16T12:13:36;101729.31;;;16.43;86.64
68580;BME280;55555;52.136;5.424;2022-10-16T12:18:40;101733.63;;;16.46;77.74
68580;BME280;55555;52.136;5.424;2022-10-16T12:21:12;101741.06;;;16.40;83.20
68580;BME280;55555;52.136;5.424;2022-10-16T12:23:53;101727.69;;;16.39;80.59
68580;BME280;55555;52.136;5.424;2022-10-16T12:26:29;101734.34;;;16.30;79.50
68580;BME280;55555;52.136;5.424;2022-10-16T12:29:33;101740.41;;;16.34;85.08
68580;BME280;55555;52.136;5.424;2022-10-16T12:32:02;101741.63;;;16.27;82.88
68580;BME280;55555;52.136;5.424;2022-10-16T12:34:38;101744.25;;;16.28;85.48
68580;BME280;55555;52.136;5.424;2022-10-16T12:37:37;101756.63;;;16.32;86.57
68580;BME280;55555;52.136;5.424;2022-10-16T12:40:16;101746.88;;;16.30;83.32
68580;BME280;55555;52.136;5.424;2022-10-16T12:42:54;101744.13;;;16.31;84.25
68580;BME280;55555;52.136;5.424;2022-10-16T12:45:25;101747.47;;;16.36;85.33
68580;BME280;55555;52.136;5.424;2022-10-16T12:48:02;101738.44;;;16.39;85.31
68580;BME280;55555;52.136;5.424;2022-10-16T12:50:43;101736.19;;;16.49;88.05
68580;BME280;55555;52.136;5.424;2022-10-16T12:53:21;101745.00;;;16.52;85.80
68580;BME280;55555;52.136;5.424;2022-10-16T12:55:57;101748.34;;;16.57;80.99
68580;BME280;55555;52.136;5.424;2022-10-16T13:01:28;101752.63;;;16.63;84.20
68580;BME280;55555;52.136;5.424;2022-10-16T13:04:23;101754.22;;;16.67;83.89
68580;BME280;55555;52.136;5.424;2022-10-16T13:07:26;101752.78;;;16.58;77.70
68580;BME280;55555;52.136;5.424;2022-10-16T13:13:18;101752.13;;;16.53;81.74
68580;BME280;55555;52.136;5.424;2022-10-16T13:16:21;101756.28;;;16.60;78.17
68580;BME280;55555;52.136;5.424;2022-10-16T13:25:25;101754.75;;;16.55;84.42
68580;BME280;55555;52.136;5.424;2022-10-16T13:28:03;101769.91;;;16.56;84.22
68580;BME280;55555;52.136;5.424;2022-10-16T13:30:38;101762.72;;;16.56;81.93
68580;BME280;55555;52.136;5.424;2022-10-16T13:33:17;101776.09;;;16.58;84.77
68580;BME280;55555;52.136;5.424;2022-10-16T13:35:55;101775.97;;;16.61;87.65
68580;BME280;55555;52.136;5.424;2022-10-16T13:43:35;101784.97;;;16.60;83.34
68580;BME280;55555;52.136;5.424;2022-10-16T13:46:16;101788.53;;;16.60;84.27
68580;BME280;55555;52.136;5.424;2022-10-16T13:48:56;101779.59;;;16.60;85.28
68580;BME280;55555;52.136;5.424;2022-10-16T13:51:31;101779.50;;;16.63;87.80
68580;BME280;55555;52.136;5.424;2022-10-16T13:53:59;101771.53;;;16.60;83.97
68580;BME280;55555;52.136;5.424;2022-10-16T13:56:29;101779.66;;;16.58;84.23
68580;BME280;55555;52.136;5.424;2022-10-16T13:59:05;101783.28;;;16.57;80.95
68580;BME280;55555;52.136;5.424;2022-10-16T14:01:39;101783.13;;;16.62;82.31
68580;BME280;55555;52.136;5.424;2022-10-16T14:04:10;101787.94;;;16.54;85.03
68580;BME280;55555;52.136;5.424;2022-10-16T14:06:42;101790.69;;;16.52;83.52
68580;BME280;55555;52.136;5.424;2022-10-16T14:11:55;101794.38;;;16.50;84.51
68580;BME280;55555;52.136;5.424;2022-10-16T14:14:44;101794.56;;;16.45;86.08
68580;BME280;55555;52.136;5.424;2022-10-16T14:17:38;101799.06;;;16.44;85.27
68580;BME280;55555;52.136;5.424;2022-10-16T14:20:04;101793.84;;;16.41;82.35
68580;BME280;55555;52.136;5.424;2022-10-16T14:22:40;101786.59;;;16.43;84.65
68580;BME280;55555;52.136;5.424;2022-10-16T14:28:05;101788.59;;;16.38;85.83
68580;BME280;55555;52.136;5.424;2022-10-16T14:30:59;101794.03;;;16.37;83.82
68580;BME280;55555;52.136;5.424;2022-10-16T14:36:03;101793.22;;;16.35;84.10
68580;BME280;55555;52.136;5.424;2022-10-16T14:38:48;101794.25;;;16.32;82.78
68580;BME280;55555;52.136;5.424;2022-10-16T14:41:21;101787.13;;;16.31;85.34
68580;BME280;55555;52.136;5.424;2022-10-16T14:43:56;101791.91;;;16.23;81.67
68580;BME280;55555;52.136;5.424;2022-10-16T14:46:34;101790.97;;;16.24;84.74
68580;BME280;55555;52.136;5.424;2022-10-16T14:51:40;101798.09;;;16.25;86.86
68580;BME280;55555;52.136;5.424;2022-10-16T14:54:08;101796.25;;;16.27;86.20
68580;BME280;55555;52.136;5.424;2022-10-16T14:59:17;101794.69;;;16.22;85.18
68580;BME280;55555;52.136;5.424;2022-10-16T15:01:51;101798.31;;;16.21;84.71